South Park, Pennsylvania
Current Conditions -  °F | °C
As of 6:53 AM on Tuesday 21 Oct 2014 (Local Time) from KAGC Reporting Station
Haze Haze  
Wind Chill: 50°   Ceiling: 400
Heat Index: 50°   Visibility: 5mi
Dew Point: 46°   Wind: 6mph
Humidity: 86%   Direction: 240°WSW
Pressure: 29.85"   Gusts: NA
Location:  40.2926°N, 79.9947°W
Report Text: KAGC 211053Z 24005KT 5SM BR OVC004 10/08 A2985 RMK AO2 SLP113 T01000078
Loading
Personal Weather Stations






























Interactive Weather Map
Tropical Storm Tracking
New forecast layout! Learn more

10-Day Weather Forecast

Advertisements
Track Severe Weather on mobile